Flight Briefing for CPX116

Departure Arrival
Los Angeles International Airport (KLAX)
Click to view FAA NOTAMS
Daniel K Inouye International Airport (PHNL)
Click to view FAA NOTAMS
Departure Time Arrival Time
N/A N/A
Aircraft Distance
B747-400BCF 2267nm
Departure METAR Arrival METAR
KLAX 260853Z 19005KT 10SM FEW012 FEW220 13/12 A3004 RMK AO2 SLP170 T01330117 58007 PHNL 260853Z 06006KT 10SM FEW025 23/17 A3010 RMK AO2 SLP192 T02330167 50008
Suggested Route
SUMMR1 DINTY DUETS R576 DENNS MAGGI3


View recent IFR Routes data
Notes



Charts and Procedures

Charts for KLAX
No chart available
Charts for PHNL
No chart available

Windy.com Weather Map